Grover, Missouri
Current Conditions -  °F | °C
As of 3:54 PM on Tuesday 25 Nov 2014 (Local Time) from KSUS Reporting Station
Clear Clear  
Wind Chill: 34°   Ceiling: Unl
Heat Index: 39°   Visibility: 10mi
Dew Point: 22°   Wind: 7mph
Humidity: 50%   Direction: 250°WSW
Pressure: 30.15"   Gusts: NA
Location:  38.58°N, 90.64°W
Report Text: KSUS 252154Z 25006KT 10SM CLR 04/M06 A3015 RMK AO2 SLP215 T00391056
Loading
Personal Weather Stations






























Interactive Weather Map New forecast layout! Learn more

10-Day Weather Forecast

Advertisements
Track Severe Weather on mobile